createdAt,value
2022-08-22T00:00:55.441Z,26.02
2022-08-22T00:02:57.844Z,26.30
2022-08-22T00:03:00.353Z,26.45
2022-08-22T00:03:24.492Z,25.79
2022-08-22T00:05:53.474Z,25.81
2022-08-22T00:08:18.656Z,25.96
2022-08-22T00:10:50.053Z,25.97
2022-08-22T00:13:15.421Z,25.77
2022-08-22T00:15:43.171Z,25.81
2022-08-22T00:18:11.037Z,25.85
2022-08-22T00:20:35.749Z,25.78
2022-08-22T00:23:03.732Z,25.81
2022-08-22T00:25:43.973Z,25.79
2022-08-22T00:28:10.445Z,25.93
2022-08-22T00:30:35.746Z,25.93
2022-08-22T00:33:05.060Z,25.72
2022-08-22T00:35:32.916Z,25.79
2022-08-22T00:38:02.634Z,25.64
2022-08-22T00:40:31.076Z,25.75
2022-08-22T00:43:14.485Z,25.82
2022-08-22T00:45:56.775Z,25.85
2022-08-22T00:48:43.436Z,25.86
2022-08-22T00:51:25.783Z,25.94
2022-08-22T00:53:52.352Z,25.86
2022-08-22T00:56:47.210Z,25.85
2022-08-22T00:59:23.753Z,25.89
2022-08-22T01:01:51.709Z,25.76
2022-08-22T01:04:26.470Z,25.85
2022-08-22T01:06:54.684Z,25.92
2022-08-22T01:09:23.446Z,25.75
2022-08-22T01:12:05.506Z,25.89
2022-08-22T01:14:38.308Z,25.84
2022-08-22T01:17:10.377Z,25.87
2022-08-22T01:20:21.129Z,25.93
2022-08-22T01:23:17.595Z,25.93
2022-08-22T01:26:00.169Z,25.97
2022-08-22T01:28:55.918Z,26.00
2022-08-22T01:31:52.211Z,26.06
2022-08-22T01:34:47.575Z,25.81
2022-08-22T01:37:35.034Z,26.03
2022-08-22T01:40:34.174Z,26.13
2022-08-22T01:43:07.989Z,26.31
2022-08-22T01:45:39.542Z,26.23
2022-08-22T01:48:07.954Z,26.25
2022-08-22T01:50:35.286Z,26.31
2022-08-22T01:53:02.417Z,26.45
2022-08-22T01:55:30.416Z,26.18
2022-08-22T01:57:54.839Z,26.34
2022-08-22T02:00:19.276Z,26.31
2022-08-22T02:03:04.556Z,26.40
2022-08-22T02:05:31.683Z,26.22
2022-08-22T02:08:00.491Z,26.09
2022-08-22T02:10:25.887Z,26.02
2022-08-22T02:12:54.466Z,26.28
2022-08-22T02:15:20.952Z,26.33
2022-08-22T02:18:12.386Z,26.21
2022-08-22T02:20:37.859Z,25.86
2022-08-22T02:23:07.670Z,26.14
2022-08-22T02:25:33.507Z,26.45
2022-08-22T02:28:00.063Z,26.64
2022-08-22T02:30:26.298Z,26.22
2022-08-22T02:33:03.546Z,25.99
2022-08-22T02:35:31.157Z,26.29
2022-08-22T02:37:59.865Z,26.09
2022-08-22T02:40:29.875Z,25.92
2022-08-22T02:43:01.006Z,25.91
2022-08-22T02:45:28.199Z,25.81
2022-08-22T02:47:56.924Z,25.69
2022-08-22T02:50:21.990Z,25.79
2022-08-22T02:52:52.533Z,25.93
2022-08-22T02:55:17.688Z,26.17
2022-08-22T02:57:47.183Z,25.85
2022-08-22T03:00:31.973Z,25.94
2022-08-22T03:03:04.297Z,25.79
2022-08-22T03:05:28.749Z,26.06
2022-08-22T03:07:54.215Z,26.08
2022-08-22T03:10:23.076Z,26.22
2022-08-22T03:12:57.524Z,26.26
2022-08-22T03:15:21.977Z,26.19
2022-08-22T03:17:49.563Z,25.89
2022-08-22T03:20:14.285Z,25.80
2022-08-22T03:22:42.240Z,25.93
2022-08-22T03:25:11.174Z,25.80
2022-08-22T03:27:35.914Z,25.75
2022-08-22T03:30:02.304Z,25.67
2022-08-22T03:32:26.499Z,25.61
2022-08-22T03:34:57.557Z,25.49
2022-08-22T03:37:22.533Z,25.53
2022-08-22T03:39:58.842Z,25.63
2022-08-22T03:42:52.063Z,25.67
2022-08-22T03:45:49.066Z,25.87
2022-08-22T03:48:26.469Z,25.85
2022-08-22T03:50:58.447Z,25.86
2022-08-22T03:53:33.379Z,25.83
2022-08-22T03:56:31.640Z,25.62
2022-08-22T03:59:10.234Z,25.68
2022-08-22T04:01:54.143Z,25.58
2022-08-22T04:04:43.797Z,25.71
2022-08-22T04:07:32.101Z,25.64
2022-08-22T04:10:13.780Z,25.38
2022-08-22T04:12:51.642Z,25.50
2022-08-22T04:15:37.294Z,25.41
2022-08-22T04:18:09.616Z,25.23
2022-08-22T04:21:01.106Z,25.33
2022-08-22T04:24:03.486Z,25.49
2022-08-22T04:26:31.103Z,25.20
2022-08-22T04:28:57.139Z,25.37
2022-08-22T04:31:23.557Z,25.49
2022-08-22T04:33:52.618Z,25.47
2022-08-22T04:36:20.411Z,25.48
2022-08-22T04:38:47.740Z,25.52
2022-08-22T04:41:13.080Z,25.78
2022-08-22T04:43:41.795Z,25.88
2022-08-22T04:46:08.487Z,25.98
2022-08-22T04:48:34.770Z,25.81
2022-08-22T04:51:03.233Z,25.73
2022-08-22T04:53:41.736Z,25.54
2022-08-22T04:56:12.611Z,25.24
2022-08-22T04:58:43.015Z,25.34
2022-08-22T05:01:16.734Z,25.41
2022-08-22T05:03:44.976Z,25.71
2022-08-22T05:06:09.733Z,25.69
2022-08-22T05:08:34.365Z,25.95
2022-08-22T05:10:57.633Z,26.02
2022-08-22T05:13:22.898Z,25.97
2022-08-22T05:15:48.582Z,25.82
2022-08-22T05:18:14.569Z,25.80
2022-08-22T05:20:38.138Z,26.18
2022-08-22T05:23:06.075Z,26.43
2022-08-22T05:25:40.543Z,26.33
2022-08-22T05:28:08.384Z,26.48
2022-08-22T05:30:32.376Z,26.66
2022-08-22T05:32:59.345Z,26.76
2022-08-22T05:35:28.314Z,26.72
2022-08-22T05:37:54.315Z,26.47
2022-08-22T05:40:20.698Z,26.27
2022-08-22T05:42:44.434Z,26.36
2022-08-22T05:45:12.218Z,26.29
2022-08-22T05:47:37.805Z,26.36
2022-08-22T05:50:02.962Z,26.29
2022-08-22T05:52:34.812Z,26.22
2022-08-22T05:54:59.120Z,26.28
2022-08-22T05:57:27.102Z,26.26
2022-08-22T05:59:50.506Z,26.13
2022-08-22T06:02:15.073Z,26.23
2022-08-22T06:04:43.773Z,26.21
2022-08-22T06:07:09.437Z,26.32
2022-08-22T06:09:35.426Z,26.16
2022-08-22T06:12:03.913Z,26.33
2022-08-22T06:14:33.863Z,26.26
2022-08-22T06:17:01.394Z,26.20
2022-08-22T06:19:24.689Z,26.12
2022-08-22T06:21:48.709Z,26.19
2022-08-22T06:24:19.063Z,26.20
2022-08-22T06:26:48.229Z,26.24
2022-08-22T06:29:12.046Z,26.37
2022-08-22T06:31:37.878Z,26.29
2022-08-22T06:34:02.375Z,26.26
2022-08-22T06:36:31.800Z,26.31
2022-08-22T06:38:58.834Z,26.19
2022-08-22T06:41:22.462Z,26.16
2022-08-22T06:43:45.752Z,26.15
2022-08-22T06:46:09.030Z,26.27
2022-08-22T06:48:34.144Z,26.38
2022-08-22T06:50:58.636Z,26.44
2022-08-22T06:53:23.139Z,26.49
2022-08-22T06:55:48.987Z,26.55
2022-08-22T06:58:14.306Z,26.61
2022-08-22T07:00:38.064Z,26.67
2022-08-22T07:03:02.791Z,26.78
2022-08-22T07:05:28.874Z,26.79
2022-08-22T07:07:52.245Z,26.59
2022-08-22T07:10:15.991Z,26.72
2022-08-22T07:12:39.601Z,26.92
2022-08-22T07:15:11.095Z,26.93
2022-08-22T07:17:37.811Z,26.93
2022-08-22T07:20:07.817Z,26.89
2022-08-22T07:22:33.615Z,26.86
2022-08-22T07:25:00.430Z,26.95
2022-08-22T07:27:30.881Z,26.99
2022-08-22T07:29:57.973Z,27.03
2022-08-22T07:32:23.164Z,26.98
2022-08-22T07:34:58.104Z,26.93
2022-08-22T07:37:26.137Z,27.10
2022-08-22T07:39:53.727Z,27.20
2022-08-22T07:42:18.331Z,27.17
2022-08-22T07:44:59.012Z,27.15
2022-08-22T07:47:26.588Z,27.19
2022-08-22T07:49:52.485Z,27.18
2022-08-22T07:52:15.867Z,27.22
2022-08-22T07:54:46.934Z,27.17
2022-08-22T07:57:13.061Z,27.27
2022-08-22T07:59:38.458Z,27.32
2022-08-22T08:02:02.006Z,27.37
2022-08-22T08:04:26.370Z,27.42
2022-08-22T08:06:49.934Z,27.47
2022-08-22T08:09:15.046Z,27.50
2022-08-22T08:11:41.139Z,27.57
2022-08-22T08:14:06.898Z,27.57
2022-08-22T08:16:34.510Z,27.59
2022-08-22T08:18:58.624Z,27.60
2022-08-22T08:21:27.773Z,27.63
2022-08-22T08:23:51.111Z,27.66
2022-08-22T08:26:17.323Z,27.62
2022-08-22T08:28:41.708Z,27.65
2022-08-22T08:31:10.240Z,27.73
2022-08-22T08:33:33.679Z,27.74
2022-08-22T08:36:02.943Z,27.76
2022-08-22T08:38:28.612Z,27.78
2022-08-22T08:41:02.744Z,27.80
2022-08-22T08:43:28.211Z,27.82
2022-08-22T08:46:21.123Z,27.81
2022-08-22T08:49:06.481Z,27.84
2022-08-22T08:51:52.290Z,27.83
2022-08-22T08:54:43.675Z,27.83
2022-08-22T08:57:09.709Z,27.88
2022-08-22T08:59:44.321Z,27.87
2022-08-22T09:02:20.520Z,27.90
2022-08-22T09:05:07.193Z,27.95
2022-08-22T09:07:56.255Z,27.93
2022-08-22T09:10:30.030Z,27.92
2022-08-22T09:13:14.121Z,27.94
2022-08-22T09:16:04.579Z,27.96
2022-08-22T09:18:50.469Z,27.98
2022-08-22T09:21:32.114Z,27.92
2022-08-22T09:24:30.023Z,27.96
2022-08-22T09:26:57.084Z,27.91
2022-08-22T09:29:33.713Z,27.91
2022-08-22T09:32:04.261Z,27.88
2022-08-22T09:34:30.954Z,27.90
2022-08-22T09:37:06.611Z,27.88
2022-08-22T09:39:34.552Z,27.85
2022-08-22T09:42:00.680Z,27.87
2022-08-22T09:44:31.850Z,27.90
2022-08-22T09:46:59.834Z,27.88
2022-08-22T09:49:27.299Z,27.89
2022-08-22T09:51:54.981Z,27.89
2022-08-22T09:54:31.716Z,27.83
2022-08-22T09:57:16.163Z,27.90
2022-08-22T09:59:53.231Z,27.93
2022-08-22T10:02:29.007Z,27.94
2022-08-22T10:04:58.168Z,27.96
2022-08-22T10:08:12.903Z,27.96
2022-08-22T10:10:46.406Z,27.93
2022-08-22T10:13:13.090Z,27.93
2022-08-22T10:15:38.400Z,27.96
2022-08-22T10:18:08.029Z,27.96
2022-08-22T10:20:37.561Z,27.96
2022-08-22T10:23:08.157Z,27.98
2022-08-22T10:25:41.752Z,28.04
2022-08-22T10:28:20.005Z,28.06
2022-08-22T10:30:50.211Z,28.03
2022-08-22T10:33:15.342Z,28.04
2022-08-22T10:35:40.817Z,28.05
2022-08-22T10:38:10.702Z,28.04
2022-08-22T10:40:36.239Z,28.04
2022-08-22T10:43:04.086Z,28.00
2022-08-22T10:45:35.724Z,28.02
2022-08-22T10:48:23.581Z,28.01
2022-08-22T10:50:49.656Z,27.99
2022-08-22T10:53:34.649Z,28.04
2022-08-22T10:56:00.058Z,28.04
2022-08-22T10:58:25.961Z,28.02
2022-08-22T11:00:51.544Z,28.02
2022-08-22T11:03:21.829Z,28.04
2022-08-22T11:05:50.001Z,28.06
2022-08-22T11:08:35.176Z,27.99
2022-08-22T11:11:18.326Z,27.95
2022-08-22T11:13:44.496Z,27.95
2022-08-22T11:16:18.426Z,27.98
2022-08-22T11:19:02.967Z,27.96
2022-08-22T11:21:47.081Z,27.96
2022-08-22T11:24:56.261Z,27.92
2022-08-22T11:27:25.292Z,27.94
2022-08-22T11:30:01.384Z,28.02
2022-08-22T11:32:30.323Z,27.88
2022-08-22T11:34:57.153Z,27.94
2022-08-22T11:37:38.828Z,27.99
2022-08-22T11:40:18.052Z,28.01
2022-08-22T11:42:50.340Z,28.03
2022-08-22T11:45:18.173Z,28.06
2022-08-22T11:47:47.441Z,27.99
2022-08-22T11:50:15.239Z,27.94
2022-08-22T11:52:53.925Z,27.93
2022-08-22T11:55:22.350Z,27.84
2022-08-22T11:57:46.332Z,27.99
2022-08-22T12:00:20.703Z,27.94
2022-08-22T12:03:02.064Z,27.90
2022-08-22T12:05:26.697Z,27.84
2022-08-22T12:07:54.569Z,27.92
2022-08-22T12:10:18.365Z,27.94
2022-08-22T12:12:55.419Z,27.96
2022-08-22T12:15:21.462Z,27.93
2022-08-22T12:18:22.976Z,27.95
2022-08-22T12:21:11.693Z,27.89
2022-08-22T12:23:57.713Z,27.91
2022-08-22T12:26:26.252Z,27.90
2022-08-22T12:28:56.863Z,27.91
2022-08-22T12:31:25.603Z,27.86
2022-08-22T12:33:57.470Z,27.87
2022-08-22T12:36:42.516Z,27.89
2022-08-22T12:39:12.175Z,27.94
2022-08-22T12:42:04.244Z,27.84
2022-08-22T12:44:33.610Z,27.89
2022-08-22T12:47:14.364Z,27.89
2022-08-22T12:49:52.625Z,27.87
2022-08-22T12:52:25.058Z,27.85
2022-08-22T12:54:56.721Z,27.87
2022-08-22T12:57:26.059Z,27.83
2022-08-22T12:59:52.964Z,27.83
2022-08-22T13:02:17.679Z,27.76
2022-08-22T13:04:52.911Z,27.72
2022-08-22T13:07:22.742Z,27.78
2022-08-22T13:09:48.788Z,27.83
2022-08-22T13:12:21.213Z,27.84
2022-08-22T13:14:45.286Z,27.80
2022-08-22T13:17:10.292Z,27.82
2022-08-22T13:19:54.439Z,27.82
2022-08-22T13:22:19.493Z,27.82
2022-08-22T13:24:52.592Z,27.79
2022-08-22T13:27:16.902Z,27.83
2022-08-22T13:29:46.725Z,27.84
2022-08-22T13:32:12.671Z,27.84
2022-08-22T13:34:40.098Z,27.84
2022-08-22T13:37:04.112Z,27.83
2022-08-22T13:39:28.219Z,27.85
2022-08-22T13:41:52.790Z,27.87
2022-08-22T13:44:19.303Z,27.85
2022-08-22T13:47:10.898Z,27.86
2022-08-22T13:49:34.605Z,27.82
2022-08-22T13:52:08.309Z,27.87
2022-08-22T13:54:55.154Z,27.83
2022-08-22T13:57:19.034Z,27.84
2022-08-22T13:59:53.095Z,27.89
2022-08-22T14:02:48.168Z,27.84
2022-08-22T14:05:14.623Z,27.75
2022-08-22T14:07:40.209Z,27.85
2022-08-22T14:10:06.155Z,27.85
2022-08-22T14:12:50.857Z,27.86
2022-08-22T14:15:14.291Z,27.82
2022-08-22T14:17:42.701Z,27.84
2022-08-22T14:20:11.121Z,27.88
2022-08-22T14:22:36.078Z,27.92
2022-08-22T14:25:00.212Z,27.91
2022-08-22T14:27:29.570Z,27.94
2022-08-22T14:29:54.499Z,27.84
2022-08-22T14:32:35.309Z,27.84
2022-08-22T14:35:01.595Z,27.88
2022-08-22T14:37:26.096Z,27.85
2022-08-22T14:39:54.641Z,27.88
2022-08-22T14:42:20.037Z,27.85
2022-08-22T14:44:48.831Z,27.84
2022-08-22T14:47:32.443Z,27.83
2022-08-22T14:50:11.328Z,27.79
2022-08-22T14:52:38.562Z,27.83
2022-08-22T14:55:15.692Z,27.82
2022-08-22T14:57:42.504Z,27.84
2022-08-22T15:00:11.684Z,27.80
2022-08-22T15:02:35.013Z,27.80
2022-08-22T15:05:01.580Z,27.82
2022-08-22T15:07:26.532Z,27.86
2022-08-22T15:09:51.893Z,27.82
2022-08-22T15:12:25.485Z,27.87
2022-08-22T15:14:52.313Z,27.88
2022-08-22T15:17:33.662Z,27.77
2022-08-22T15:19:57.427Z,27.86
2022-08-22T15:22:25.793Z,27.85
2022-08-22T15:24:53.003Z,27.75
2022-08-22T15:27:20.039Z,27.80
2022-08-22T15:29:50.484Z,27.82
2022-08-22T15:32:14.178Z,27.85
2022-08-22T15:34:39.762Z,27.71
2022-08-22T15:37:29.613Z,27.74
2022-08-22T15:40:05.902Z,27.81
2022-08-22T15:42:34.396Z,27.80
2022-08-22T15:44:59.138Z,27.83
2022-08-22T15:47:27.761Z,27.75
2022-08-22T15:49:54.050Z,27.77
2022-08-22T15:52:25.959Z,27.69
2022-08-22T15:55:20.723Z,27.76
2022-08-22T15:57:50.895Z,27.78
2022-08-22T16:00:28.261Z,27.72
2022-08-22T16:02:56.976Z,27.63
2022-08-22T16:05:23.667Z,27.62
2022-08-22T16:07:47.276Z,27.68
2022-08-22T16:10:28.242Z,27.77
2022-08-22T16:13:14.058Z,27.73
2022-08-22T16:15:57.141Z,27.66
2022-08-22T16:18:57.635Z,27.64
2022-08-22T16:21:53.522Z,27.61
2022-08-22T16:24:30.995Z,27.59
2022-08-22T16:26:57.219Z,27.65
2022-08-22T16:29:30.526Z,27.64
2022-08-22T16:32:01.422Z,27.57
2022-08-22T16:34:26.352Z,27.57
2022-08-22T16:36:53.009Z,27.57
2022-08-22T16:39:36.311Z,27.57
2022-08-22T16:42:27.420Z,27.61
2022-08-22T16:44:50.746Z,27.57
2022-08-22T16:47:17.336Z,27.56
2022-08-22T16:49:53.963Z,27.58
2022-08-22T16:53:02.714Z,27.56
2022-08-22T16:55:48.807Z,27.54
2022-08-22T16:58:49.884Z,27.56
2022-08-22T17:01:17.910Z,27.60
2022-08-22T17:03:45.631Z,27.59
2022-08-22T17:06:20.751Z,27.53
2022-08-22T17:08:51.892Z,27.61
2022-08-22T17:11:22.740Z,27.55
2022-08-22T17:13:56.686Z,27.50
2022-08-22T17:16:30.126Z,27.51
2022-08-22T17:19:02.052Z,27.51
2022-08-22T17:21:26.953Z,27.52
2022-08-22T17:23:56.694Z,27.53
2022-08-22T17:26:21.690Z,27.55
2022-08-22T17:28:50.541Z,27.52
2022-08-22T17:31:18.586Z,27.58
2022-08-22T17:34:01.790Z,27.48
2022-08-22T17:36:28.423Z,27.55
2022-08-22T17:38:54.746Z,27.56
2022-08-22T17:41:25.878Z,27.56
2022-08-22T17:43:53.551Z,27.55
2022-08-22T17:46:32.417Z,27.49
2022-08-22T17:48:59.242Z,27.58
2022-08-22T17:51:28.601Z,27.62
2022-08-22T17:53:53.906Z,27.64
2022-08-22T17:56:21.485Z,27.55
2022-08-22T17:58:46.830Z,27.43
2022-08-22T18:01:13.647Z,27.37
2022-08-22T18:03:37.762Z,27.38
2022-08-22T18:06:02.946Z,27.21
2022-08-22T18:09:12.952Z,27.12
2022-08-22T18:11:16.541Z,27.06
2022-08-22T18:13:43.760Z,27.07
2022-08-22T18:16:08.378Z,26.99
2022-08-22T18:18:33.581Z,26.86
2022-08-22T18:20:58.877Z,26.88
2022-08-22T18:23:40.111Z,27.03
2022-08-22T18:26:09.153Z,27.29
2022-08-22T18:28:35.804Z,27.39
2022-08-22T18:31:02.116Z,27.44
2022-08-22T18:33:32.895Z,27.37
2022-08-22T18:36:00.635Z,27.36
2022-08-22T18:38:26.249Z,27.43
2022-08-22T18:40:53.317Z,27.50
2022-08-22T18:43:23.897Z,27.53
2022-08-22T18:46:03.828Z,27.50
2022-08-22T18:48:29.584Z,27.34
2022-08-22T18:50:52.836Z,27.26
2022-08-22T18:53:37.530Z,27.17
2022-08-22T18:56:01.667Z,27.04
2022-08-22T18:58:34.336Z,26.97
2022-08-22T19:01:07.510Z,26.78
2022-08-22T19:03:41.348Z,26.87
2022-08-22T19:06:43.154Z,26.74
2022-08-22T19:09:25.687Z,26.89
2022-08-22T19:11:54.128Z,27.12
2022-08-22T19:14:54.990Z,26.93
2022-08-22T19:18:06.670Z,26.89
2022-08-22T19:20:48.821Z,26.76
2022-08-22T19:23:43.800Z,26.69
2022-08-22T19:26:32.614Z,26.66
2022-08-22T19:28:57.640Z,26.68
2022-08-22T19:31:24.327Z,26.60
2022-08-22T19:33:48.724Z,26.59
2022-08-22T19:36:13.066Z,26.47
2022-08-22T19:38:55.910Z,26.49
2022-08-22T19:41:38.021Z,26.37
2022-08-22T19:44:01.571Z,26.36
2022-08-22T19:46:35.330Z,26.49
2022-08-22T19:48:58.690Z,26.42
2022-08-22T19:51:27.153Z,26.37
2022-08-22T19:53:54.082Z,26.36
2022-08-22T19:56:29.488Z,26.28
2022-08-22T19:59:02.685Z,26.26
2022-08-22T20:01:36.823Z,26.41
2022-08-22T20:04:03.712Z,26.34
2022-08-22T20:06:43.486Z,26.28
2022-08-22T20:09:22.068Z,26.31
2022-08-22T20:11:47.875Z,26.33
2022-08-22T20:14:22.441Z,26.32
2022-08-22T20:17:09.985Z,26.42
2022-08-22T20:19:42.427Z,26.21
2022-08-22T20:22:06.151Z,26.12
2022-08-22T20:24:34.498Z,26.16
2022-08-22T20:27:13.840Z,26.17
2022-08-22T20:29:39.715Z,26.13
2022-08-22T20:32:05.185Z,26.14
2022-08-22T20:34:31.072Z,26.11
2022-08-22T20:37:15.859Z,25.99
2022-08-22T20:39:41.438Z,26.01
2022-08-22T20:42:06.509Z,26.13
2022-08-22T20:44:31.653Z,26.17
2022-08-22T20:46:58.707Z,26.19
2022-08-22T20:49:23.573Z,26.18
2022-08-22T20:51:53.320Z,25.99
2022-08-22T20:54:18.369Z,25.89
2022-08-22T20:56:52.719Z,26.07
2022-08-22T20:59:23.765Z,25.85
2022-08-22T21:01:47.131Z,26.05
2022-08-22T21:04:10.375Z,25.99
2022-08-22T21:06:34.973Z,25.86
2022-08-22T21:09:25.174Z,25.72
2022-08-22T21:11:51.240Z,25.92
2022-08-22T21:14:21.370Z,25.78
2022-08-22T21:16:44.778Z,25.74
2022-08-22T21:19:08.050Z,25.71
2022-08-22T21:21:32.432Z,25.82
2022-08-22T21:24:00.602Z,25.82
2022-08-22T21:26:26.390Z,25.75
2022-08-22T21:28:56.634Z,25.54
2022-08-22T21:31:21.841Z,25.60
2022-08-22T21:33:48.453Z,25.63
2022-08-22T21:36:13.223Z,25.76
2022-08-22T21:38:36.438Z,25.74
2022-08-22T21:41:02.060Z,25.85
2022-08-22T21:43:31.174Z,25.88
2022-08-22T21:45:54.439Z,25.90
2022-08-22T21:48:34.692Z,25.76
2022-08-22T21:50:57.990Z,25.78
2022-08-22T21:53:27.678Z,26.04
2022-08-22T21:56:10.810Z,26.02
2022-08-22T21:58:37.408Z,25.86
2022-08-22T22:01:01.357Z,25.80
2022-08-22T22:03:26.490Z,26.04
2022-08-22T22:05:50.205Z,26.03
2022-08-22T22:08:13.500Z,25.95
2022-08-22T22:10:37.239Z,26.01
2022-08-22T22:13:00.699Z,26.22
2022-08-22T22:15:27.285Z,26.50
2022-08-22T22:17:50.577Z,26.38
2022-08-22T22:20:15.278Z,26.43
2022-08-22T22:22:45.813Z,26.51
2022-08-22T22:25:40.572Z,26.37
2022-08-22T22:27:53.911Z,26.56
2022-08-22T22:30:20.734Z,26.49
2022-08-22T22:32:46.926Z,26.44
2022-08-22T22:35:11.264Z,26.61
2022-08-22T22:37:37.049Z,26.63
2022-08-22T22:40:06.967Z,26.80
2022-08-22T22:42:30.791Z,26.73
2022-08-22T22:44:54.086Z,26.38
2022-08-22T22:47:17.389Z,26.39
2022-08-22T22:49:42.358Z,26.45
2022-08-22T22:52:05.842Z,26.64
2022-08-22T22:54:34.979Z,26.65
2022-08-22T22:56:58.672Z,26.58
2022-08-22T22:59:24.794Z,26.59
2022-08-22T23:02:04.316Z,26.38
2022-08-22T23:04:27.676Z,26.28
2022-08-22T23:06:52.304Z,26.18
2022-08-22T23:09:15.590Z,26.21
2022-08-22T23:11:41.358Z,26.39
2022-08-22T23:14:04.603Z,26.60
2022-08-22T23:16:33.987Z,26.78
2022-08-22T23:19:00.425Z,26.58
2022-08-22T23:21:27.319Z,26.52
2022-08-22T23:23:52.078Z,26.36
2022-08-22T23:26:15.720Z,26.56
2022-08-22T23:28:38.951Z,26.78
2022-08-22T23:31:10.789Z,26.93
2022-08-22T23:33:35.322Z,26.97
2022-08-22T23:36:00.074Z,26.78
2022-08-22T23:38:23.441Z,26.56
2022-08-22T23:40:48.130Z,26.35
2022-08-22T23:43:11.400Z,26.41
2022-08-22T23:45:34.730Z,26.27
2022-08-22T23:47:57.962Z,26.16
2022-08-22T23:50:21.271Z,26.27
2022-08-22T23:52:44.523Z,26.19
2022-08-22T23:55:08.443Z,26.04
2022-08-22T23:57:33.080Z,26.22
2022-08-22T23:59:57.879Z,26.14
